Braceville, Illinois
Current Conditions -  °F | °C
As of 9:55 AM on Friday 31 Oct 2014 (Local Time) from KC09 Reporting Station
Broken Clouds Broken Clouds  
Wind Chill: 31°   Ceiling: 2900
Heat Index: 39°   Visibility: 10mi
Dew Point: 30°   Wind: 14mph
Humidity: 68%   Direction: 340°NNW
Pressure: 30.15"   Gusts: 29mph
Location:  41.23°N, 88.26°W
Report Text: KC09 311455Z AUTO 34012G25KT 280V360 10SM BKN029 BKN035 04/M01 A3015 RMK AO2 T00411013
Loading
Personal Weather Stations






























Interactive Weather Map
Tropical Storm Tracking
New forecast layout! Learn more

10-Day Weather Forecast

Advertisements
Track Severe Weather on mobile